createdAt,value
2023-05-02T00:01:54.301Z,14.60
2023-05-02T00:04:22.756Z,12.60
2023-05-02T00:06:49.944Z,9.80
2023-05-02T00:09:17.213Z,13.80
2023-05-02T00:11:44.147Z,12.20
2023-05-02T00:14:12.450Z,12.40
2023-05-02T00:16:40.576Z,12.70
2023-05-02T00:19:08.153Z,14.70
2023-05-02T00:21:35.297Z,18.10
2023-05-02T00:24:02.436Z,16.70
2023-05-02T00:26:29.454Z,12.70
2023-05-02T00:28:56.412Z,15.20
2023-05-02T00:31:23.329Z,12.50
2023-05-02T00:33:51.007Z,14.20
2023-05-02T00:36:18.233Z,11.50
2023-05-02T00:38:45.284Z,13.40
2023-05-02T00:41:12.282Z,15.70
2023-05-02T00:43:42.228Z,13.90
2023-05-02T00:46:09.151Z,13.30
2023-05-02T00:48:36.622Z,13.70
2023-05-02T00:51:05.250Z,16.60
2023-05-02T00:53:32.738Z,13.00
2023-05-02T00:56:00.590Z,12.50
2023-05-02T00:58:27.514Z,12.90
2023-05-02T01:01:00.563Z,12.40
2023-05-02T01:03:30.628Z,11.00
2023-05-02T01:06:13.187Z,11.60
2023-05-02T01:08:41.064Z,15.40
2023-05-02T01:11:15.861Z,11.20
2023-05-02T01:13:43.550Z,14.00
2023-05-02T01:16:10.698Z,12.30
2023-05-02T01:18:39.378Z,13.40
2023-05-02T01:21:10.309Z,11.00
2023-05-02T01:23:47.277Z,11.80
2023-05-02T01:26:23.628Z,13.50
2023-05-02T01:29:00.431Z,12.70
2023-05-02T01:31:31.965Z,12.00
2023-05-02T01:33:59.125Z,16.40
2023-05-02T01:36:27.217Z,13.30
2023-05-02T01:38:55.640Z,13.20
2023-05-02T01:41:23.079Z,13.30
2023-05-02T01:43:50.013Z,12.90
2023-05-02T01:46:17.087Z,11.80
2023-05-02T01:48:44.871Z,12.20
2023-05-02T01:51:11.915Z,10.00
2023-05-02T01:53:38.908Z,9.80
2023-05-02T01:56:06.163Z,11.70
2023-05-02T01:58:33.678Z,13.60
2023-05-02T02:01:01.132Z,12.70
2023-05-02T02:03:28.797Z,11.90
2023-05-02T02:05:55.770Z,10.30
2023-05-02T02:08:22.923Z,11.50
2023-05-02T02:10:51.026Z,11.50
2023-05-02T02:13:20.209Z,12.30
2023-05-02T02:15:47.624Z,12.00
2023-05-02T02:18:15.200Z,14.50
2023-05-02T02:20:43.403Z,13.50
2023-05-02T02:23:10.370Z,11.00
2023-05-02T02:25:37.398Z,14.30
2023-05-02T02:28:04.441Z,10.40
2023-05-02T02:30:32.199Z,9.80
2023-05-02T02:32:59.286Z,11.30
2023-05-02T02:35:28.484Z,14.80
2023-05-02T02:38:11.739Z,11.10
2023-05-02T02:40:42.360Z,12.70
2023-05-02T02:43:13.886Z,9.90
2023-05-02T02:45:46.295Z,12.60
2023-05-02T02:48:22.553Z,11.10
2023-05-02T02:51:01.789Z,11.30
2023-05-02T02:53:39.758Z,10.30
2023-05-02T02:56:06.995Z,15.30
2023-05-02T02:58:37.027Z,9.70
2023-05-02T03:01:05.307Z,10.00
2023-05-02T03:03:33.450Z,9.90
2023-05-02T03:06:00.717Z,12.40
2023-05-02T03:08:27.896Z,8.70
2023-05-02T03:10:55.120Z,12.00
2023-05-02T03:13:22.299Z,13.40
2023-05-02T03:15:54.068Z,15.90
2023-05-02T03:18:25.155Z,10.50
2023-05-02T03:20:53.817Z,9.70
2023-05-02T03:23:20.959Z,14.80
2023-05-02T03:25:48.237Z,12.20
2023-05-02T03:28:16.575Z,10.50
2023-05-02T03:33:00.665Z,15.50
2023-05-02T03:35:27.900Z,10.70
2023-05-02T03:37:55.632Z,9.80
2023-05-02T03:40:23.299Z,12.50
2023-05-02T03:42:50.473Z,7.60
2023-05-02T03:45:21.932Z,9.70
2023-05-02T03:47:49.621Z,7.80
2023-05-02T03:50:16.740Z,9.20
2023-05-02T03:52:45.354Z,8.50
2023-05-02T03:55:12.438Z,9.50
2023-05-02T03:57:40.504Z,6.30
2023-05-02T04:00:10.277Z,6.60
2023-05-02T04:02:45.677Z,7.00
2023-05-02T04:05:16.048Z,8.90
2023-05-02T04:07:44.001Z,8.00
2023-05-02T04:10:17.342Z,8.30
2023-05-02T04:12:51.520Z,5.30
2023-05-02T04:15:19.299Z,6.30
2023-05-02T04:17:47.798Z,8.20
2023-05-02T04:20:15.896Z,6.40
2023-05-02T04:22:50.932Z,8.40
2023-05-02T04:25:18.180Z,13.00
2023-05-02T04:27:46.229Z,6.30
2023-05-02T04:30:16.140Z,8.10
2023-05-02T04:32:47.071Z,5.60
2023-05-02T04:35:16.186Z,4.80
2023-05-02T04:37:43.347Z,7.50
2023-05-02T04:40:11.585Z,6.50
2023-05-02T04:42:39.370Z,6.70
2023-05-02T04:45:14.056Z,9.60
2023-05-02T04:47:43.090Z,7.10
2023-05-02T04:50:10.331Z,7.20
2023-05-02T04:52:37.305Z,10.10
2023-05-02T04:55:05.114Z,9.30
2023-05-02T04:57:32.079Z,6.50
2023-05-02T05:00:01.722Z,5.60
2023-05-02T05:02:29.431Z,12.80
2023-05-02T05:04:59.196Z,6.20
2023-05-02T05:07:28.346Z,7.30
2023-05-02T05:09:55.572Z,8.60
2023-05-02T05:12:24.312Z,7.00
2023-05-02T05:14:51.847Z,6.80
2023-05-02T05:17:23.116Z,8.90
2023-05-02T05:19:50.206Z,8.30
2023-05-02T05:22:17.132Z,7.20
2023-05-02T05:24:51.056Z,7.70
2023-05-02T05:27:18.168Z,7.50
2023-05-02T05:29:45.031Z,7.20
2023-05-02T05:32:14.516Z,7.10
2023-05-02T05:34:41.706Z,12.80
2023-05-02T05:37:08.610Z,8.30
2023-05-02T05:39:35.665Z,7.60
2023-05-02T05:42:03.515Z,7.30
2023-05-02T05:44:31.744Z,8.60
2023-05-02T05:46:59.783Z,12.40
2023-05-02T05:49:26.992Z,8.10
2023-05-02T05:51:54.258Z,9.70
2023-05-02T05:54:21.194Z,6.80
2023-05-02T05:56:48.184Z,10.90
2023-05-02T05:59:18.054Z,7.00
2023-05-02T06:01:44.977Z,7.30
2023-05-02T06:04:12.786Z,7.30
2023-05-02T06:06:42.745Z,9.00
2023-05-02T06:09:09.811Z,6.40
2023-05-02T06:11:38.506Z,6.40
2023-05-02T06:14:06.332Z,8.50
2023-05-02T06:16:33.414Z,6.90
2023-05-02T06:19:00.643Z,8.80
2023-05-02T06:21:27.531Z,7.30
2023-05-02T06:23:54.468Z,7.70
2023-05-02T06:26:21.871Z,6.90
2023-05-02T06:28:48.731Z,63.80
2023-05-02T06:31:16.704Z,11.50
2023-05-02T06:33:43.777Z,5.60
2023-05-02T06:36:11.469Z,7.90
2023-05-02T06:38:38.430Z,7.90
2023-05-02T06:41:05.562Z,7.30
2023-05-02T06:43:33.753Z,4.90
2023-05-02T06:46:00.962Z,8.00
2023-05-02T06:48:27.907Z,8.10
2023-05-02T06:50:54.847Z,9.90
2023-05-02T06:53:21.780Z,5.10
2023-05-02T06:55:49.854Z,8.90
2023-05-02T06:58:16.730Z,6.50
2023-05-02T07:00:44.638Z,6.60
2023-05-02T07:03:12.429Z,6.00
2023-05-02T07:05:40.811Z,5.40
2023-05-02T07:08:07.776Z,3.20
2023-05-02T07:10:34.770Z,49.50
2023-05-02T07:13:01.765Z,6.80
2023-05-02T07:15:29.383Z,5.10
2023-05-02T07:17:56.296Z,6.10
2023-05-02T07:20:23.220Z,5.30
2023-05-02T07:22:50.753Z,4.10
2023-05-02T07:25:17.966Z,6.40
2023-05-02T07:27:44.885Z,2.80
2023-05-02T07:30:12.334Z,5.10
2023-05-02T07:32:39.394Z,4.40
2023-05-02T07:35:06.784Z,3.70
2023-05-02T07:37:34.801Z,3.60
2023-05-02T07:40:02.483Z,3.60
2023-05-02T07:42:32.810Z,3.10
2023-05-02T07:45:00.221Z,3.70
2023-05-02T07:47:27.581Z,2.50
2023-05-02T07:49:55.342Z,4.90
2023-05-02T07:52:22.324Z,3.90
2023-05-02T07:54:52.160Z,4.80
2023-05-02T07:57:19.097Z,3.60
2023-05-02T07:59:47.365Z,5.50
2023-05-02T08:02:14.456Z,21.90
2023-05-02T08:04:41.461Z,5.70
2023-05-02T08:07:08.702Z,5.00
2023-05-02T08:09:35.759Z,3.50
2023-05-02T08:12:06.191Z,3.50
2023-05-02T08:14:33.285Z,4.20
2023-05-02T08:17:00.492Z,3.70
2023-05-02T08:19:27.583Z,1.60
2023-05-02T08:21:57.533Z,1.70
2023-05-02T08:24:24.656Z,1.50
2023-05-02T08:27:01.840Z,1.40
2023-05-02T08:29:28.764Z,1.80
2023-05-02T08:31:55.722Z,3.00
2023-05-02T08:34:22.681Z,2.50
2023-05-02T08:36:49.576Z,3.70
2023-05-02T08:39:18.947Z,2.80
2023-05-02T08:41:46.393Z,4.40
2023-05-02T08:44:14.344Z,1.80
2023-05-02T08:46:41.633Z,1.80
2023-05-02T08:49:10.474Z,1.70
2023-05-02T08:51:39.344Z,3.10
2023-05-02T08:54:09.687Z,3.20
2023-05-02T08:56:37.866Z,2.70
2023-05-02T08:59:04.766Z,1.60
2023-05-02T09:01:31.951Z,2.10
2023-05-02T09:03:59.851Z,1.70
2023-05-02T09:06:27.369Z,1.90
2023-05-02T09:08:54.522Z,3.30
2023-05-02T09:11:23.203Z,2.20
2023-05-02T09:13:51.510Z,2.00
2023-05-02T09:16:18.446Z,1.10
2023-05-02T09:18:49.381Z,3.10
2023-05-02T09:21:42.378Z,1.50
2023-05-02T09:24:18.623Z,1.30
2023-05-02T09:27:03.115Z,2.50
2023-05-02T09:29:41.021Z,2.50
2023-05-02T09:32:08.064Z,3.30
2023-05-02T09:34:37.743Z,20.00
2023-05-02T09:37:05.741Z,4.90
2023-05-02T09:39:32.959Z,2.60
2023-05-02T09:41:59.978Z,2.40
2023-05-02T09:44:27.727Z,1.90
2023-05-02T09:46:55.255Z,1.60
2023-05-02T09:49:41.630Z,2.70
2023-05-02T09:52:12.197Z,2.70
2023-05-02T09:54:39.227Z,2.90
2023-05-02T09:57:10.175Z,15.10
2023-05-02T09:59:43.208Z,2.60
2023-05-02T10:02:12.071Z,1.90
2023-05-02T10:04:39.425Z,2.20
2023-05-02T10:07:07.514Z,7.30
2023-05-02T10:09:35.201Z,42.30
2023-05-02T10:12:08.549Z,2.10
2023-05-02T10:14:37.904Z,2.60
2023-05-02T10:17:04.956Z,2.20
2023-05-02T10:19:58.348Z,2.30
2023-05-02T10:22:25.542Z,1.80
2023-05-02T10:24:52.982Z,2.40
2023-05-02T10:27:21.395Z,2.10
2023-05-02T10:29:48.343Z,2.10
2023-05-02T10:32:16.999Z,2.10
2023-05-02T10:34:46.270Z,1.90
2023-05-02T10:37:13.889Z,1.90
2023-05-02T10:39:40.906Z,2.30
2023-05-02T10:42:08.017Z,2.00
2023-05-02T10:44:38.830Z,2.10
2023-05-02T10:47:19.313Z,3.80
2023-05-02T10:49:56.089Z,2.90
2023-05-02T10:52:27.715Z,3.70
2023-05-02T10:55:20.885Z,1.00
2023-05-02T10:58:01.302Z,1.30
2023-05-02T11:00:29.803Z,2.60
2023-05-02T11:02:57.074Z,2.20
2023-05-02T11:05:27.723Z,2.20
2023-05-02T11:08:22.994Z,2.00
2023-05-02T11:10:50.381Z,2.40
2023-05-02T11:13:17.343Z,44.20
2023-05-02T11:15:44.964Z,3.00
2023-05-02T11:18:13.055Z,3.00
2023-05-02T11:20:40.876Z,3.30
2023-05-02T11:23:21.867Z,2.50
2023-05-02T11:25:49.936Z,3.10
2023-05-02T11:28:36.314Z,3.20
2023-05-02T11:31:03.640Z,2.40
2023-05-02T11:33:32.098Z,3.60
2023-05-02T11:35:59.185Z,1.80
2023-05-02T11:38:26.721Z,1.00
2023-05-02T11:40:57.531Z,1.60
2023-05-02T11:43:30.664Z,1.90
2023-05-02T11:46:00.150Z,26.20
2023-05-02T11:48:30.297Z,3.70
2023-05-02T11:51:05.911Z,3.10
2023-05-02T11:53:33.575Z,3.50
2023-05-02T11:56:04.770Z,1.70
2023-05-02T11:58:33.661Z,1.90
2023-05-02T12:01:14.485Z,3.70
2023-05-02T12:03:41.973Z,1.90
2023-05-02T12:06:14.218Z,2.70
2023-05-02T12:08:42.599Z,1.40
2023-05-02T12:11:09.697Z,4.60
2023-05-02T12:13:36.653Z,3.50
2023-05-02T12:16:04.637Z,3.10
2023-05-02T12:18:31.796Z,1.20
2023-05-02T12:20:58.734Z,3.50
2023-05-02T12:23:26.961Z,2.30
2023-05-02T12:25:54.357Z,2.90
2023-05-02T12:28:21.325Z,1.60
2023-05-02T12:30:49.132Z,2.40
2023-05-02T12:33:17.760Z,1.70
2023-05-02T12:35:48.481Z,3.50
2023-05-02T12:38:19.436Z,2.30
2023-05-02T12:40:47.012Z,3.20
2023-05-02T12:43:14.576Z,2.30
2023-05-02T12:45:44.619Z,1.30
2023-05-02T12:48:21.254Z,2.60
2023-05-02T12:50:48.408Z,2.10
2023-05-02T12:53:15.544Z,2.40
2023-05-02T12:55:42.476Z,2.80
2023-05-02T12:58:10.122Z,1.80
2023-05-02T13:00:39.432Z,4.00
2023-05-02T13:03:08.185Z,2.30
2023-05-02T13:05:35.553Z,2.10
2023-05-02T13:08:02.620Z,2.40
2023-05-02T13:10:29.924Z,4.10
2023-05-02T13:12:58.123Z,2.20
2023-05-02T13:15:25.198Z,1.40
2023-05-02T13:17:52.754Z,6.00
2023-05-02T13:20:20.588Z,5.00
2023-05-02T13:22:47.768Z,3.00
2023-05-02T13:25:14.714Z,1.90
2023-05-02T13:27:42.233Z,1.80
2023-05-02T13:30:15.015Z,3.30
2023-05-02T13:32:42.740Z,1.70
2023-05-02T13:35:10.521Z,2.90
2023-05-02T13:37:37.631Z,1.90
2023-05-02T13:40:06.927Z,2.80
2023-05-02T13:42:33.844Z,2.20
2023-05-02T13:45:03.183Z,1.70
2023-05-02T13:47:30.268Z,1.60
2023-05-02T13:49:58.566Z,2.00
2023-05-02T13:52:25.765Z,2.10
2023-05-02T13:54:52.776Z,2.80
2023-05-02T13:57:19.681Z,1.80
2023-05-02T13:59:46.582Z,2.00
2023-05-02T14:02:13.768Z,3.20
2023-05-02T14:04:41.155Z,1.60
2023-05-02T14:07:11.581Z,1.60
2023-05-02T14:09:40.004Z,3.20
2023-05-02T14:12:07.418Z,4.10
2023-05-02T14:14:36.390Z,3.70
2023-05-02T14:17:03.395Z,2.20
2023-05-02T14:19:30.381Z,1.50
2023-05-02T14:21:57.368Z,1.30
2023-05-02T14:24:24.326Z,2.00
2023-05-02T14:26:51.350Z,2.30
2023-05-02T14:29:18.757Z,5.10
2023-05-02T14:31:46.276Z,1.80
2023-05-02T14:34:13.411Z,2.20
2023-05-02T14:36:40.365Z,1.30
2023-05-02T14:39:07.489Z,2.00
2023-05-02T14:41:34.452Z,1.80
2023-05-02T14:44:01.286Z,1.20
2023-05-02T14:46:28.686Z,0.90
2023-05-02T14:48:55.761Z,2.50
2023-05-02T14:51:22.694Z,2.10
2023-05-02T14:53:50.921Z,1.90
2023-05-02T14:56:18.837Z,3.20
2023-05-02T14:58:47.011Z,2.20
2023-05-02T15:01:18.873Z,2.40
2023-05-02T15:04:04.448Z,1.70
2023-05-02T15:06:32.994Z,1.30
2023-05-02T15:09:00.235Z,1.30
2023-05-02T15:11:27.413Z,2.10
2023-05-02T15:13:58.458Z,1.50
2023-05-02T15:16:27.367Z,1.60
2023-05-02T15:18:54.587Z,2.20
2023-05-02T15:21:21.714Z,2.10
2023-05-02T15:23:49.584Z,2.40
2023-05-02T15:26:16.623Z,1.20
2023-05-02T15:28:43.664Z,2.20
2023-05-02T15:31:11.260Z,1.50
2023-05-02T15:33:38.519Z,1.90
2023-05-02T15:36:05.553Z,4.20
2023-05-02T15:38:34.243Z,1.70
2023-05-02T15:41:01.168Z,1.90
2023-05-02T15:43:28.593Z,3.00
2023-05-02T15:45:56.496Z,2.60
2023-05-02T15:50:52.551Z,2.30
2023-05-02T15:53:19.601Z,2.80
2023-05-02T15:55:49.812Z,3.20
2023-05-02T15:58:17.807Z,2.30
2023-05-02T16:00:45.183Z,1.60
2023-05-02T16:03:15.768Z,1.90
2023-05-02T16:05:42.904Z,5.80
2023-05-02T16:08:10.146Z,3.10
2023-05-02T16:10:39.356Z,2.60
2023-05-02T16:13:06.336Z,3.10
2023-05-02T16:15:33.441Z,4.60
2023-05-02T16:18:00.583Z,2.40
2023-05-02T16:20:29.052Z,1.60
2023-05-02T16:22:56.002Z,5.40
2023-05-02T16:25:22.874Z,3.60
2023-05-02T16:27:49.733Z,3.80
2023-05-02T16:30:16.892Z,1.80
2023-05-02T16:32:43.811Z,4.60
2023-05-02T16:35:13.310Z,5.80
2023-05-02T16:37:43.770Z,5.00
2023-05-02T16:40:10.791Z,4.30
2023-05-02T16:42:37.804Z,6.60
2023-05-02T16:45:04.946Z,4.50
2023-05-02T16:47:32.221Z,5.60
2023-05-02T16:49:59.616Z,5.30
2023-05-02T16:52:26.833Z,5.30
2023-05-02T16:54:53.778Z,4.80
2023-05-02T16:57:21.550Z,4.80
2023-05-02T16:59:49.279Z,6.90
2023-05-02T17:02:16.482Z,8.40
2023-05-02T17:04:43.526Z,5.80
2023-05-02T17:07:12.421Z,6.80
2023-05-02T17:09:42.338Z,8.60
2023-05-02T17:12:10.936Z,6.80
2023-05-02T17:14:39.727Z,8.60
2023-05-02T17:17:06.831Z,5.20
2023-05-02T17:19:34.155Z,11.00
2023-05-02T17:22:01.780Z,13.40
2023-05-02T17:24:30.077Z,12.20
2023-05-02T17:26:57.086Z,11.50
2023-05-02T17:29:25.005Z,7.60
2023-05-02T17:31:51.898Z,7.90
2023-05-02T17:34:18.961Z,10.10
2023-05-02T17:36:46.541Z,12.20
2023-05-02T17:39:13.598Z,8.90
2023-05-02T17:41:42.211Z,13.10
2023-05-02T17:44:09.237Z,12.90
2023-05-02T17:46:37.591Z,14.00
2023-05-02T17:49:05.181Z,11.70
2023-05-02T17:51:33.806Z,10.80
2023-05-02T17:54:01.066Z,14.20
2023-05-02T17:56:28.546Z,13.60
2023-05-02T17:58:56.334Z,12.10
2023-05-02T18:01:23.239Z,12.30
2023-05-02T18:03:50.235Z,13.30
2023-05-02T18:06:17.693Z,13.60
2023-05-02T18:08:44.930Z,15.50
2023-05-02T18:11:18.231Z,14.00
2023-05-02T18:13:45.468Z,15.40
2023-05-02T18:16:12.681Z,14.40
2023-05-02T18:18:39.620Z,12.90
2023-05-02T18:21:06.618Z,26.20
2023-05-02T18:23:33.561Z,13.60
2023-05-02T18:26:00.768Z,16.00
2023-05-02T18:28:27.707Z,16.60
2023-05-02T18:30:54.653Z,15.10
2023-05-02T18:33:21.682Z,17.00
2023-05-02T18:35:48.851Z,13.90
2023-05-02T18:38:16.033Z,19.30
2023-05-02T18:40:43.855Z,16.70
2023-05-02T18:43:10.736Z,15.90
2023-05-02T18:45:38.159Z,25.40
2023-05-02T18:48:05.816Z,21.20
2023-05-02T18:50:32.882Z,22.20
2023-05-02T18:52:59.783Z,21.80
2023-05-02T18:55:26.643Z,23.90
2023-05-02T18:57:53.668Z,17.50
2023-05-02T19:00:21.105Z,26.30
2023-05-02T19:02:48.154Z,20.30
2023-05-02T19:05:16.150Z,20.90
2023-05-02T19:07:43.074Z,16.40
2023-05-02T19:10:11.261Z,21.30
2023-05-02T19:12:38.379Z,20.00
2023-05-02T19:15:06.843Z,28.50
2023-05-02T19:17:33.931Z,22.80
2023-05-02T19:20:01.584Z,24.70
2023-05-02T19:22:30.013Z,24.90
2023-05-02T19:24:57.189Z,24.20
2023-05-02T19:27:24.086Z,20.90
2023-05-02T19:29:52.998Z,22.30
2023-05-02T19:32:21.923Z,20.50
2023-05-02T19:34:49.629Z,15.70
2023-05-02T19:37:16.487Z,23.60
2023-05-02T19:39:43.473Z,24.90
2023-05-02T19:42:10.430Z,23.10
2023-05-02T19:44:37.299Z,18.80
2023-05-02T19:47:04.357Z,21.80
2023-05-02T19:49:31.435Z,18.80
2023-05-02T19:51:58.307Z,21.20
2023-05-02T19:54:25.421Z,20.90
2023-05-02T19:56:52.321Z,28.90
2023-05-02T19:59:19.246Z,24.00
2023-05-02T20:01:47.167Z,24.20
2023-05-02T20:04:14.261Z,24.40
2023-05-02T20:06:41.269Z,19.00
2023-05-02T20:09:08.270Z,24.80
2023-05-02T20:11:35.220Z,21.30
2023-05-02T20:14:02.153Z,56.70
2023-05-02T20:16:31.613Z,170.10
2023-05-02T20:18:58.657Z,162.50
2023-05-02T20:21:25.524Z,103.90
2023-05-02T20:23:52.524Z,119.50
2023-05-02T20:26:20.888Z,160.30
2023-05-02T20:28:47.816Z,148.60
2023-05-02T20:31:15.333Z,135.60
2023-05-02T20:33:45.729Z,73.70
2023-05-02T20:36:14.347Z,67.00
2023-05-02T20:38:42.948Z,56.90
2023-05-02T20:41:12.806Z,56.70
2023-05-02T20:43:45.285Z,60.50
2023-05-02T20:46:12.867Z,55.20
2023-05-02T20:48:39.778Z,58.70
2023-05-02T20:51:06.898Z,56.70
2023-05-02T20:53:33.871Z,80.50
2023-05-02T20:56:00.965Z,82.20
2023-05-02T20:58:27.928Z,72.20
2023-05-02T21:00:56.840Z,98.00
2023-05-02T21:03:23.929Z,132.90
2023-05-02T21:05:52.154Z,74.20
2023-05-02T21:08:19.109Z,106.20
2023-05-02T21:10:46.125Z,104.50
2023-05-02T21:13:13.439Z,93.10
2023-05-02T21:15:40.641Z,96.50
2023-05-02T21:18:07.729Z,81.20
2023-05-02T21:20:34.729Z,106.80
2023-05-02T21:23:02.095Z,99.50
2023-05-02T21:25:28.977Z,85.70
2023-05-02T21:27:56.595Z,77.50
2023-05-02T21:30:24.530Z,66.90
2023-05-02T21:32:52.034Z,63.90
2023-05-02T21:35:18.965Z,53.40
2023-05-02T21:37:45.953Z,53.90
2023-05-02T21:40:13.067Z,46.50
2023-05-02T21:42:40.204Z,39.70
2023-05-02T21:45:07.456Z,31.50
2023-05-02T21:47:34.372Z,40.60
2023-05-02T21:50:01.494Z,37.50
2023-05-02T21:52:28.654Z,42.00
2023-05-02T21:54:55.556Z,33.80
2023-05-02T21:57:22.500Z,34.80
2023-05-02T21:59:49.433Z,36.00
2023-05-02T22:02:16.278Z,26.70
2023-05-02T22:04:48.403Z,35.60
2023-05-02T22:07:16.104Z,40.60
2023-05-02T22:09:42.958Z,28.70
2023-05-02T22:12:09.888Z,27.00
2023-05-02T22:14:44.257Z,31.40
2023-05-02T22:17:12.670Z,29.10
2023-05-02T22:19:39.954Z,24.40
2023-05-02T22:22:07.124Z,31.00
2023-05-02T22:24:34.136Z,37.00
2023-05-02T22:27:01.658Z,34.80
2023-05-02T22:29:28.553Z,26.60
2023-05-02T22:31:55.906Z,31.70
2023-05-02T22:34:23.314Z,26.10
2023-05-02T22:36:50.232Z,35.90
2023-05-02T22:39:17.421Z,45.80
2023-05-02T22:41:44.403Z,36.50
2023-05-02T22:44:11.561Z,58.90
2023-05-02T22:46:38.682Z,58.50
2023-05-02T22:49:07.668Z,32.50
2023-05-02T22:51:34.544Z,25.30
2023-05-02T22:54:04.946Z,33.70
2023-05-02T22:56:32.006Z,55.60
2023-05-02T22:58:58.860Z,64.80
2023-05-02T23:01:25.918Z,88.50
2023-05-02T23:03:52.984Z,78.30
2023-05-02T23:06:19.999Z,54.50
2023-05-02T23:08:46.953Z,59.40
2023-05-02T23:11:13.963Z,52.80
2023-05-02T23:13:40.967Z,55.20
2023-05-02T23:16:08.090Z,47.00
2023-05-02T23:18:35.098Z,29.60
2023-05-02T23:21:02.964Z,30.20
2023-05-02T23:23:30.063Z,32.60
2023-05-02T23:25:57.071Z,44.10
2023-05-02T23:28:24.059Z,38.80
2023-05-02T23:30:51.318Z,37.60
2023-05-02T23:33:18.390Z,36.70
2023-05-02T23:35:45.448Z,40.70
2023-05-02T23:38:12.380Z,44.30
2023-05-02T23:40:39.286Z,41.80
2023-05-02T23:43:07.674Z,31.70
2023-05-02T23:45:34.683Z,29.90
2023-05-02T23:48:01.699Z,33.60
2023-05-02T23:50:29.244Z,28.10
2023-05-02T23:52:56.183Z,24.00
2023-05-02T23:55:23.237Z,33.40
2023-05-02T23:57:50.180Z,41.60
